Aviation Digital Data Service (ADDS)

Output produced by METARs form (2339 UTC 20 January 2019)
found at http://www.aviationweather.gov/metar/data/
 
Forecast for: MNMG (MANAGUA/AUGUSTO , NI)
Text: MNMG 202220Z 2100/2124 11014KT 9999 FEW022
Forecast period: 0000 UTC 21 January 2019 to 0000 UTC 22 January 2019
Forecast type: FROM: standard forecast or significant change
Winds: from the ESE (110 degrees) at 16 MPH (14 knots; 7.2 m/s)
Visibility: 6 or more miles 10+ km)
Ceiling: at least 12,000 feet AGL
Clouds: few clouds at 2200 feet AGL
Weather: no significant weather forecast for this period
Text: TEMPO 2106/2112 13008KT FEW020 SCT070
Forecast period: 0600 to 1200 UTC 21 January 2019
Forecast type: TEMPORARY: The following changes expected for less than half the time period
Winds: from the SE (130 degrees) at 9 MPH (8 knots; 4.1 m/s)
Visibility: missing
Ceiling: at least 12,000 feet AGL
Clouds: few clouds at 2000 feet AGL
scattered clouds at 7000 feet AGL
Weather: no significant weather forecast for this period
Text: TEMPO 2113/2120 07016G26KT
Forecast period: 1300 to 2000 UTC 21 January 2019
Forecast type: TEMPORARY: The following changes expected for less than half the time period
Winds: from the ENE (70 degrees) at 18 MPH (16 knots; 8.2 m/s)
gusting to 30 MPH (26 knots; 13.4 m/s)
Visibility: missing
Ceiling: unknown
Clouds: missing
Weather: no significant weather forecast for this period